createdAt,value
2019-05-28T00:01:24.722Z,97091.00
2019-05-28T00:06:40.689Z,97075.00
2019-05-28T00:11:50.162Z,97071.00
2019-05-28T00:16:59.652Z,97067.00
2019-05-28T00:22:07.018Z,97065.00
2019-05-28T00:27:17.626Z,97065.00
2019-05-28T00:32:28.466Z,97050.00
2019-05-28T00:37:42.864Z,97048.00
2019-05-28T00:42:52.400Z,97045.00
2019-05-28T00:48:01.132Z,97044.00
2019-05-28T00:53:09.388Z,97047.00
2019-05-28T00:58:17.484Z,97042.00
2019-05-28T01:03:25.298Z,97031.00
2019-05-28T01:08:32.499Z,97032.00
2019-05-28T01:13:39.784Z,97036.00
2019-05-28T01:18:47.822Z,97032.00
2019-05-28T01:23:55.332Z,97029.00
2019-05-28T01:29:04.251Z,97024.00
2019-05-28T01:34:11.775Z,97025.00
2019-05-28T01:39:25.887Z,97022.00
2019-05-28T01:44:35.814Z,97021.00
2019-05-28T01:50:00.132Z,97024.00
2019-05-28T01:55:14.058Z,97020.00
2019-05-28T02:00:34.222Z,97016.00
2019-05-28T02:05:59.561Z,97004.00
2019-05-28T02:11:25.354Z,97002.00
2019-05-28T02:16:32.895Z,96982.00
2019-05-28T02:21:40.928Z,96987.00
2019-05-28T02:26:49.301Z,96991.00
2019-05-28T02:31:59.034Z,96988.00
2019-05-28T02:37:08.572Z,96991.00
2019-05-28T02:42:16.304Z,96991.00
2019-05-28T02:47:24.857Z,96996.00
2019-05-28T02:52:32.673Z,96988.00
2019-05-28T02:57:49.133Z,96992.00
2019-05-28T03:02:58.289Z,96993.00
2019-05-28T03:08:26.478Z,96998.00
2019-05-28T03:13:51.450Z,96993.00
2019-05-28T03:19:01.497Z,96991.00
2019-05-28T03:24:14.066Z,97002.00
2019-05-28T03:29:39.720Z,96996.00
2019-05-28T03:34:48.631Z,96992.00
2019-05-28T03:39:59.327Z,96998.00
2019-05-28T03:45:09.353Z,96991.00
2019-05-28T03:50:34.618Z,96985.00
2019-05-28T03:55:44.762Z,96983.00
2019-05-28T04:00:52.102Z,96987.00
2019-05-28T04:05:59.844Z,96983.00
2019-05-28T04:11:16.162Z,96984.00
2019-05-28T04:16:42.900Z,96991.00
2019-05-28T04:21:52.093Z,96991.00
2019-05-28T04:27:06.581Z,96997.00
2019-05-28T04:32:40.061Z,96989.00
2019-05-28T04:37:57.956Z,96989.00
2019-05-28T04:43:05.408Z,96998.00
2019-05-28T04:48:30.732Z,96998.00
2019-05-28T04:53:40.553Z,96992.00
2019-05-28T04:59:07.184Z,96999.00
2019-05-28T05:04:22.908Z,96986.00
2019-05-28T05:09:39.864Z,97001.00
2019-05-28T05:15:02.511Z,96993.00
2019-05-28T05:20:17.904Z,97003.00
2019-05-28T05:25:28.259Z,97001.00
2019-05-28T05:30:51.151Z,97019.00
2019-05-28T05:35:59.356Z,97012.00
2019-05-28T05:41:13.714Z,97014.00
2019-05-28T05:46:22.305Z,97017.00
2019-05-28T05:51:30.603Z,97016.00
2019-05-28T05:56:56.155Z,97017.00
2019-05-28T06:02:05.969Z,97024.00
2019-05-28T06:07:15.780Z,97027.00
2019-05-28T06:12:25.512Z,97028.00
2019-05-28T06:17:39.108Z,97011.00
2019-05-28T06:22:48.623Z,97021.00
2019-05-28T06:27:56.521Z,97032.00
2019-05-28T06:33:06.725Z,97042.00
2019-05-28T06:38:16.789Z,97037.00
2019-05-28T06:43:27.464Z,97046.00
2019-05-28T06:48:53.117Z,97047.00
2019-05-28T06:54:05.958Z,97043.00
2019-05-28T06:59:15.999Z,97048.00
2019-05-28T07:04:32.775Z,97054.00
2019-05-28T07:09:38.586Z,97061.00
2019-05-28T07:14:45.886Z,97059.00
2019-05-28T07:19:54.312Z,97061.00
2019-05-28T07:25:01.683Z,97064.00
2019-05-28T07:30:10.552Z,97070.00
2019-05-28T07:35:19.604Z,97060.00
2019-05-28T07:40:31.731Z,97070.00
2019-05-28T07:45:37.194Z,97072.00
2019-05-28T07:50:45.609Z,97060.00
2019-05-28T07:55:52.992Z,97069.00
2019-05-28T08:01:00.417Z,97072.00
2019-05-28T08:06:08.744Z,97078.00
2019-05-28T08:11:16.856Z,97073.00
2019-05-28T08:16:26.511Z,97073.00
2019-05-28T08:21:35.568Z,97068.00
2019-05-28T08:26:42.945Z,97079.00
2019-05-28T08:31:51.094Z,97073.00
2019-05-28T08:37:05.992Z,97073.00
2019-05-28T08:42:08.037Z,97072.00
2019-05-28T08:47:15.983Z,97072.00
2019-05-28T08:52:26.544Z,97078.00
2019-05-28T08:57:35.128Z,97085.00
2019-05-28T09:02:42.452Z,97088.00
2019-05-28T09:07:50.587Z,97089.00
2019-05-28T09:12:59.068Z,97094.00
2019-05-28T09:18:08.939Z,97084.00
2019-05-28T09:23:17.125Z,97099.00
2019-05-28T09:28:30.096Z,97105.00
2019-05-28T09:33:34.947Z,97118.00
2019-05-28T09:38:42.250Z,97114.00
2019-05-28T09:43:50.670Z,97120.00
2019-05-28T09:48:59.191Z,97120.00
2019-05-28T09:54:07.610Z,97132.00
2019-05-28T09:59:15.541Z,97134.00
2019-05-28T10:04:43.044Z,97136.00
2019-05-28T10:09:32.667Z,97145.00
2019-05-28T10:14:44.199Z,97135.00
2019-05-28T10:19:51.462Z,97137.00
2019-05-28T10:24:59.907Z,97144.00
2019-05-28T10:30:11.000Z,97137.00
2019-05-28T10:35:18.960Z,97147.00
2019-05-28T10:40:26.472Z,97147.00
2019-05-28T10:45:34.004Z,97145.00
2019-05-28T10:50:42.576Z,97152.00
2019-05-28T10:55:50.987Z,97145.00
2019-05-28T11:01:01.159Z,97152.00
2019-05-28T11:06:08.985Z,97143.00
2019-05-28T11:11:16.289Z,97138.00
2019-05-28T11:16:23.642Z,97144.00
2019-05-28T11:21:31.953Z,97154.00
2019-05-28T11:26:40.293Z,97141.00
2019-05-28T11:31:47.609Z,97147.00
2019-05-28T11:37:08.901Z,97138.00
2019-05-28T11:42:06.613Z,97143.00
2019-05-28T11:47:16.436Z,97145.00
2019-05-28T11:52:24.929Z,97146.00
2019-05-28T11:57:34.610Z,97139.00
2019-05-28T12:02:41.932Z,97143.00
2019-05-28T12:07:51.984Z,97135.00
2019-05-28T12:13:01.936Z,97138.00
2019-05-28T12:18:15.998Z,97128.00
2019-05-28T12:23:24.146Z,97131.00
2019-05-28T12:28:37.706Z,97132.00
2019-05-28T12:33:41.995Z,97129.00
2019-05-28T12:38:50.258Z,97130.00
2019-05-28T12:43:57.502Z,97137.00
2019-05-28T12:49:05.872Z,97143.00
2019-05-28T12:54:13.140Z,97148.00
2019-05-28T12:59:20.487Z,97145.00
2019-05-28T13:04:27.753Z,97140.00
2019-05-28T13:09:35.034Z,97147.00
2019-05-28T13:14:43.133Z,97159.00
2019-05-28T13:19:51.439Z,97158.00
2019-05-28T13:24:59.670Z,97157.00
2019-05-28T13:30:13.313Z,97157.00
2019-05-28T13:35:23.371Z,97168.00
2019-05-28T13:40:31.701Z,97165.00
2019-05-28T13:45:40.228Z,97159.00
2019-05-28T13:50:48.330Z,97161.00
2019-05-28T13:55:55.758Z,97157.00
2019-05-28T14:01:05.831Z,97166.00
2019-05-28T14:06:13.125Z,97166.00
2019-05-28T14:11:21.096Z,97166.00
2019-05-28T14:16:29.147Z,97164.00
2019-05-28T14:21:37.485Z,97168.00
2019-05-28T14:26:45.726Z,97169.00
2019-05-28T14:31:53.619Z,97177.00
2019-05-28T14:37:01.925Z,97172.00
2019-05-28T14:42:09.352Z,97175.00
2019-05-28T14:47:19.249Z,97173.00
2019-05-28T14:52:30.746Z,97190.00
2019-05-28T14:57:40.954Z,97187.00
2019-05-28T15:02:48.379Z,97196.00
2019-05-28T15:07:55.880Z,97200.00
2019-05-28T15:13:05.323Z,97207.00
2019-05-28T15:18:12.692Z,97204.00
2019-05-28T15:23:25.072Z,97218.00
2019-05-28T15:28:35.723Z,97222.00
2019-05-28T15:33:43.076Z,97222.00
2019-05-28T15:38:51.705Z,97237.00
2019-05-28T15:43:59.064Z,97231.00
2019-05-28T15:49:07.666Z,97230.00
2019-05-28T15:54:16.844Z,97237.00
2019-05-28T15:59:24.202Z,97247.00
2019-05-28T16:04:31.600Z,97249.00
2019-05-28T16:09:54.997Z,97257.00
2019-05-28T16:14:48.434Z,97269.00
2019-05-28T16:19:56.503Z,97263.00
2019-05-28T16:25:08.548Z,97273.00
2019-05-28T16:30:17.499Z,97277.00
2019-05-28T16:35:25.659Z,97269.00
2019-05-28T16:40:32.977Z,97282.00
2019-05-28T16:45:40.276Z,97284.00
2019-05-28T16:50:47.531Z,97294.00
2019-05-28T16:55:54.930Z,97287.00
2019-05-28T17:01:21.107Z,97299.00
2019-05-28T17:06:11.349Z,97311.00
2019-05-28T17:11:19.128Z,97303.00
2019-05-28T17:16:26.965Z,97308.00
2019-05-28T17:21:35.167Z,97309.00
2019-05-28T17:26:43.014Z,97320.00
2019-05-28T17:31:51.323Z,97335.00
2019-05-28T17:37:00.410Z,97337.00
2019-05-28T17:42:08.034Z,97349.00
2019-05-28T17:47:25.316Z,97348.00
2019-05-28T17:52:33.840Z,97354.00
2019-05-28T17:57:42.289Z,97350.00
2019-05-28T18:02:52.154Z,97359.00
2019-05-28T18:07:59.383Z,97360.00
2019-05-28T18:13:09.178Z,97371.00
2019-05-28T18:18:17.638Z,97376.00
2019-05-28T18:23:26.455Z,97385.00
2019-05-28T18:28:33.978Z,97381.00
2019-05-28T18:33:42.379Z,97387.00
2019-05-28T18:38:49.717Z,97397.00
2019-05-28T18:44:01.336Z,97402.00
2019-05-28T18:49:09.224Z,97422.00
2019-05-28T18:54:18.362Z,97430.00
2019-05-28T18:59:26.231Z,97439.00
2019-05-28T19:04:33.785Z,97461.00
2019-05-28T19:09:42.866Z,97459.00
2019-05-28T19:14:51.229Z,97473.00
2019-05-28T19:19:58.961Z,97487.00
2019-05-28T19:25:10.708Z,97495.00
2019-05-28T19:30:22.518Z,97498.00
2019-05-28T19:35:30.985Z,97512.00
2019-05-28T19:40:44.282Z,97514.00
2019-05-28T19:45:51.880Z,97514.00
2019-05-28T19:50:59.242Z,97524.00
2019-05-28T19:56:24.723Z,97525.00
2019-05-28T20:01:39.988Z,97532.00
2019-05-28T20:06:49.523Z,97541.00
2019-05-28T20:12:11.480Z,97545.00
2019-05-28T20:17:06.691Z,97550.00
2019-05-28T20:22:13.956Z,97558.00
2019-05-28T20:27:22.126Z,97563.00
2019-05-28T20:32:29.427Z,97579.00
2019-05-28T20:37:36.792Z,97591.00
2019-05-28T20:42:44.185Z,97592.00
2019-05-28T20:47:51.542Z,97595.00
2019-05-28T20:52:58.951Z,97598.00
2019-05-28T20:58:06.409Z,97590.00
2019-05-28T21:03:15.586Z,97594.00
2019-05-28T21:08:22.964Z,97596.00
2019-05-28T21:13:30.277Z,97602.00
2019-05-28T21:18:38.449Z,97611.00
2019-05-28T21:23:45.673Z,97613.00
2019-05-28T21:28:54.190Z,97616.00
2019-05-28T21:34:02.543Z,97616.00
2019-05-28T21:39:10.927Z,97621.00
2019-05-28T21:44:18.259Z,97620.00
2019-05-28T21:49:25.494Z,97633.00
2019-05-28T21:54:32.806Z,97629.00
2019-05-28T21:59:41.467Z,97646.00
2019-05-28T22:04:49.899Z,97633.00
2019-05-28T22:09:57.663Z,97653.00
2019-05-28T22:15:09.745Z,97651.00
2019-05-28T22:20:17.120Z,97650.00
2019-05-28T22:25:24.465Z,97656.00
2019-05-28T22:30:32.799Z,97663.00
2019-05-28T22:35:40.195Z,97669.00
2019-05-28T22:40:48.543Z,97673.00
2019-05-28T22:45:56.926Z,97676.00
2019-05-28T23:08:51.651Z,97683.00
2019-05-28T23:14:02.065Z,97688.00
2019-05-28T23:19:10.884Z,97701.00
2019-05-28T23:24:18.296Z,97695.00
2019-05-28T23:29:26.452Z,97699.00
2019-05-28T23:34:36.131Z,97709.00
2019-05-28T23:39:43.409Z,97709.00
2019-05-28T23:44:51.324Z,97717.00
2019-05-28T23:49:58.689Z,97714.00
2019-05-28T23:55:07.833Z,97717.00
